sensor_id;sensor_type;location;lat;lon;timestamp;pressure;altitude;pressure_sealevel;temperature;humidity
34925;BME280;21130;51.728;8.748;2024-01-15T00:00:20;98880.59;;;-0.70;100.00
34925;BME280;21130;51.728;8.748;2024-01-15T00:02:47;98868.44;;;-0.68;100.00
34925;BME280;21130;51.728;8.748;2024-01-15T00:05:15;98863.56;;;-0.66;100.00
34925;BME280;21130;51.728;8.748;2024-01-15T00:07:41;98865.69;;;-0.68;100.00
34925;BME280;21130;51.728;8.748;2024-01-15T00:10:08;98849.94;;;-0.66;100.00
34925;BME280;21130;51.728;8.748;2024-01-15T00:12:35;98860.03;;;-0.66;100.00
34925;BME280;21130;51.728;8.748;2024-01-15T00:15:01;98861.47;;;-0.63;100.00
34925;BME280;21130;51.728;8.748;2024-01-15T00:17:28;98863.38;;;-0.64;100.00
34925;BME280;21130;51.728;8.748;2024-01-15T00:19:54;98855.84;;;-0.62;100.00
34925;BME280;21130;51.728;8.748;2024-01-15T00:22:24;98855.00;;;-0.62;100.00
34925;BME280;21130;51.728;8.748;2024-01-15T00:24:51;98843.03;;;-0.61;100.00
34925;BME280;21130;51.728;8.748;2024-01-15T00:27:17;98832.13;;;-0.61;100.00
34925;BME280;21130;51.728;8.748;2024-01-15T00:29:44;98837.38;;;-0.60;100.00
34925;BME280;21130;51.728;8.748;2024-01-15T00:32:10;98841.97;;;-0.60;100.00
34925;BME280;21130;51.728;8.748;2024-01-15T00:34:37;98835.06;;;-0.63;100.00
34925;BME280;21130;51.728;8.748;2024-01-15T00:37:03;98838.03;;;-0.64;100.00
34925;BME280;21130;51.728;8.748;2024-01-15T00:39:33;98828.78;;;-0.63;100.00
34925;BME280;21130;51.728;8.748;2024-01-15T00:42:00;98822.50;;;-0.64;100.00
34925;BME280;21130;51.728;8.748;2024-01-15T00:44:27;98827.53;;;-0.61;100.00
34925;BME280;21130;51.728;8.748;2024-01-15T00:46:53;98815.78;;;-0.61;100.00
34925;BME280;21130;51.728;8.748;2024-01-15T00:49:20;98814.13;;;-0.62;100.00
34925;BME280;21130;51.728;8.748;2024-01-15T00:51:47;98823.97;;;-0.61;100.00
34925;BME280;21130;51.728;8.748;2024-01-15T00:54:13;98827.31;;;-0.59;100.00
34925;BME280;21130;51.728;8.748;2024-01-15T00:56:41;98824.81;;;-0.61;100.00
34925;BME280;21130;51.728;8.748;2024-01-15T00:59:07;98815.59;;;-0.60;100.00
34925;BME280;21130;51.728;8.748;2024-01-15T01:01:36;98827.09;;;-0.58;100.00
34925;BME280;21130;51.728;8.748;2024-01-15T01:04:03;98820.81;;;-0.58;100.00
34925;BME280;21130;51.728;8.748;2024-01-15T01:06:29;98832.53;;;-0.58;100.00
34925;BME280;21130;51.728;8.748;2024-01-15T01:08:56;98836.13;;;-0.57;100.00
34925;BME280;21130;51.728;8.748;2024-01-15T01:11:22;98833.78;;;-0.54;100.00
34925;BME280;21130;51.728;8.748;2024-01-15T01:13:50;98851.59;;;-0.51;100.00
34925;BME280;21130;51.728;8.748;2024-01-15T01:16:17;98841.34;;;-0.49;100.00
34925;BME280;21130;51.728;8.748;2024-01-15T01:18:43;98834.81;;;-0.48;100.00
34925;BME280;21130;51.728;8.748;2024-01-15T01:21:10;98832.97;;;-0.48;100.00
34925;BME280;21130;51.728;8.748;2024-01-15T01:23:36;98830.00;;;-0.46;100.00
34925;BME280;21130;51.728;8.748;2024-01-15T01:26:03;98820.78;;;-0.45;100.00
34925;BME280;21130;51.728;8.748;2024-01-15T01:28:29;98835.25;;;-0.45;100.00
34925;BME280;21130;51.728;8.748;2024-01-15T01:30:57;98845.91;;;-0.43;100.00
34925;BME280;21130;51.728;8.748;2024-01-15T01:33:23;98842.97;;;-0.41;100.00
34925;BME280;21130;51.728;8.748;2024-01-15T01:35:50;98836.69;;;-0.42;100.00
34925;BME280;21130;51.728;8.748;2024-01-15T01:38:16;98835.63;;;-0.41;100.00
34925;BME280;21130;51.728;8.748;2024-01-15T01:40:42;98837.53;;;-0.41;100.00
34925;BME280;21130;51.728;8.748;2024-01-15T01:43:09;98835.00;;;-0.43;100.00
34925;BME280;21130;51.728;8.748;2024-01-15T01:45:36;98823.72;;;-0.47;100.00
34925;BME280;21130;51.728;8.748;2024-01-15T01:48:05;98826.44;;;-0.47;100.00
34925;BME280;21130;51.728;8.748;2024-01-15T01:50:33;98829.16;;;-0.47;100.00
34925;BME280;21130;51.728;8.748;2024-01-15T01:53:00;98834.63;;;-0.47;100.00
34925;BME280;21130;51.728;8.748;2024-01-15T01:55:29;98831.25;;;-0.49;100.00
34925;BME280;21130;51.728;8.748;2024-01-15T01:57:58;98830.44;;;-0.49;100.00
34925;BME280;21130;51.728;8.748;2024-01-15T02:00:25;98829.16;;;-0.47;100.00
34925;BME280;21130;51.728;8.748;2024-01-15T02:02:52;98822.06;;;-0.48;100.00
34925;BME280;21130;51.728;8.748;2024-01-15T02:05:22;98813.88;;;-0.48;100.00
34925;BME280;21130;51.728;8.748;2024-01-15T02:07:48;98817.00;;;-0.51;100.00
34925;BME280;21130;51.728;8.748;2024-01-15T02:22:53;98809.66;;;-0.50;100.00
34925;BME280;21130;51.728;8.748;2024-01-15T02:25:21;98802.75;;;-0.53;100.00
34925;BME280;21130;51.728;8.748;2024-01-15T02:27:47;98801.09;;;-0.54;100.00
34925;BME280;21130;51.728;8.748;2024-01-15T02:30:15;98799.19;;;-0.53;100.00
34925;BME280;21130;51.728;8.748;2024-01-15T02:32:41;98796.72;;;-0.55;100.00
34925;BME280;21130;51.728;8.748;2024-01-15T02:35:08;98799.19;;;-0.53;100.00
34925;BME280;21130;51.728;8.748;2024-01-15T02:37:35;98799.00;;;-0.52;100.00
34925;BME280;21130;51.728;8.748;2024-01-15T02:40:02;98792.47;;;-0.51;100.00
34925;BME280;21130;51.728;8.748;2024-01-15T02:42:30;98796.03;;;-0.50;100.00
34925;BME280;21130;51.728;8.748;2024-01-15T02:44:56;98793.53;;;-0.45;100.00
34925;BME280;21130;51.728;8.748;2024-01-15T02:47:22;98794.75;;;-0.41;100.00
34925;BME280;21130;51.728;8.748;2024-01-15T02:49:49;98795.56;;;-0.34;100.00
34925;BME280;21130;51.728;8.748;2024-01-15T02:52:15;98803.31;;;-0.31;100.00
34925;BME280;21130;51.728;8.748;2024-01-15T02:54:42;98797.22;;;-0.33;100.00
34925;BME280;21130;51.728;8.748;2024-01-15T02:57:08;98797.84;;;-0.31;100.00
34925;BME280;21130;51.728;8.748;2024-01-15T02:59:36;98803.94;;;-0.29;100.00
34925;BME280;21130;51.728;8.748;2024-01-15T03:02:02;98811.91;;;-0.27;100.00
34925;BME280;21130;51.728;8.748;2024-01-15T03:04:29;98810.22;;;-0.28;100.00
34925;BME280;21130;51.728;8.748;2024-01-15T03:06:57;98811.03;;;-0.28;100.00
34925;BME280;21130;51.728;8.748;2024-01-15T03:09:23;98806.44;;;-0.27;100.00
34925;BME280;21130;51.728;8.748;2024-01-15T03:11:50;98807.28;;;-0.27;100.00
34925;BME280;21130;51.728;8.748;2024-01-15T03:14:16;98803.94;;;-0.29;100.00
34925;BME280;21130;51.728;8.748;2024-01-15T03:16:44;98805.81;;;-0.29;100.00
34925;BME280;21130;51.728;8.748;2024-01-15T03:19:11;98790.50;;;-0.30;100.00
34925;BME280;21130;51.728;8.748;2024-01-15T03:21:38;98805.41;;;-0.33;100.00
34925;BME280;21130;51.728;8.748;2024-01-15T03:24:10;98797.03;;;-0.31;100.00
34925;BME280;21130;51.728;8.748;2024-01-15T03:26:36;98793.47;;;-0.32;100.00
34925;BME280;21130;51.728;8.748;2024-01-15T03:29:03;98789.69;;;-0.31;100.00
34925;BME280;21130;51.728;8.748;2024-01-15T03:31:29;98801.41;;;-0.30;100.00
34925;BME280;21130;51.728;8.748;2024-01-15T03:33:57;98798.47;;;-0.29;100.00
34925;BME280;21130;51.728;8.748;2024-01-15T03:36:23;98795.97;;;-0.30;100.00
34925;BME280;21130;51.728;8.748;2024-01-15T03:38:50;98791.97;;;-0.28;100.00
34925;BME280;21130;51.728;8.748;2024-01-15T03:41:16;98786.50;;;-0.28;100.00
34925;BME280;21130;51.728;8.748;2024-01-15T03:43:43;98785.69;;;-0.28;100.00
34925;BME280;21130;51.728;8.748;2024-01-15T03:46:09;98783.78;;;-0.28;100.00
34925;BME280;21130;51.728;8.748;2024-01-15T03:48:36;98793.84;;;-0.28;100.00
34925;BME280;21130;51.728;8.748;2024-01-15T03:51:04;98783.75;;;-0.21;100.00
34925;BME280;21130;51.728;8.748;2024-01-15T03:53:30;98791.13;;;-0.22;100.00
34925;BME280;21130;51.728;8.748;2024-01-15T03:55:57;98786.94;;;-0.24;100.00
34925;BME280;21130;51.728;8.748;2024-01-15T03:58:23;98784.41;;;-0.26;100.00
34925;BME280;21130;51.728;8.748;2024-01-15T04:00:50;98787.13;;;-0.26;100.00
34925;BME280;21130;51.728;8.748;2024-01-15T04:03:16;98775.59;;;-0.28;100.00
34925;BME280;21130;51.728;8.748;2024-01-15T04:05:54;98779.19;;;-0.27;100.00
34925;BME280;21130;51.728;8.748;2024-01-15T04:08:23;98773.50;;;-0.26;100.00
34925;BME280;21130;51.728;8.748;2024-01-15T04:10:51;98765.13;;;-0.24;100.00
34925;BME280;21130;51.728;8.748;2024-01-15T04:13:18;98770.38;;;-0.23;100.00
34925;BME280;21130;51.728;8.748;2024-01-15T04:15:46;98766.56;;;-0.22;100.00
34925;BME280;21130;51.728;8.748;2024-01-15T04:18:16;98772.03;;;-0.22;100.00
34925;BME280;21130;51.728;8.748;2024-01-15T04:20:42;98775.38;;;-0.19;100.00
34925;BME280;21130;51.728;8.748;2024-01-15T04:23:09;98767.41;;;-0.21;100.00
34925;BME280;21130;51.728;8.748;2024-01-15T04:25:37;98761.94;;;-0.21;100.00
34925;BME280;21130;51.728;8.748;2024-01-15T04:28:04;98759.47;;;-0.23;100.00
34925;BME280;21130;51.728;8.748;2024-01-15T04:30:31;98771.41;;;-0.24;100.00
34925;BME280;21130;51.728;8.748;2024-01-15T04:32:57;98759.66;;;-0.24;100.00
34925;BME280;21130;51.728;8.748;2024-01-15T04:35:24;98765.94;;;-0.24;100.00
34925;BME280;21130;51.728;8.748;2024-01-15T04:37:50;98761.56;;;-0.25;100.00
34925;BME280;21130;51.728;8.748;2024-01-15T04:40:17;98768.06;;;-0.26;100.00
34925;BME280;21130;51.728;8.748;2024-01-15T04:42:45;98751.94;;;-0.27;100.00
34925;BME280;21130;51.728;8.748;2024-01-15T04:45:11;98764.50;;;-0.26;100.00
34925;BME280;21130;51.728;8.748;2024-01-15T04:47:38;98768.50;;;-0.29;100.00
34925;BME280;21130;51.728;8.748;2024-01-15T04:50:06;98762.41;;;-0.31;100.00
34925;BME280;21130;51.728;8.748;2024-01-15T04:52:34;98750.88;;;-0.33;100.00
34925;BME280;21130;51.728;8.748;2024-01-15T04:55:00;98758.47;;;-0.35;100.00
34925;BME280;21130;51.728;8.748;2024-01-15T04:57:27;98754.28;;;-0.37;100.00
34925;BME280;21130;51.728;8.748;2024-01-15T04:59:54;98748.03;;;-0.45;100.00
34925;BME280;21130;51.728;8.748;2024-01-15T05:02:21;98748.47;;;-0.48;100.00
34925;BME280;21130;51.728;8.748;2024-01-15T05:04:47;98752.03;;;-0.47;100.00
34925;BME280;21130;51.728;8.748;2024-01-15T05:07:14;98749.94;;;-0.45;100.00
34925;BME280;21130;51.728;8.748;2024-01-15T05:09:40;98751.78;;;-0.46;100.00
34925;BME280;21130;51.728;8.748;2024-01-15T05:12:07;98732.13;;;-0.48;100.00
34925;BME280;21130;51.728;8.748;2024-01-15T05:14:35;98736.53;;;-0.53;100.00
34925;BME280;21130;51.728;8.748;2024-01-15T05:17:03;98727.34;;;-0.59;100.00
34925;BME280;21130;51.728;8.748;2024-01-15T05:19:29;98736.97;;;-0.56;100.00
34925;BME280;21130;51.728;8.748;2024-01-15T05:21:56;98724.81;;;-0.60;100.00
34925;BME280;21130;51.728;8.748;2024-01-15T05:24:22;98744.97;;;-0.61;100.00
34925;BME280;21130;51.728;8.748;2024-01-15T05:26:49;98743.06;;;-0.61;100.00
34925;BME280;21130;51.728;8.748;2024-01-15T05:29:15;98737.22;;;-0.64;100.00
34925;BME280;21130;51.728;8.748;2024-01-15T05:31:41;98738.69;;;-0.62;100.00
34925;BME280;21130;51.728;8.748;2024-01-15T05:34:09;98738.44;;;-0.60;100.00
34925;BME280;21130;51.728;8.748;2024-01-15T05:36:36;98742.81;;;-0.53;100.00
34925;BME280;21130;51.728;8.748;2024-01-15T05:39:02;98730.63;;;-0.50;100.00
34925;BME280;21130;51.728;8.748;2024-01-15T05:41:29;98736.72;;;-0.48;100.00
34925;BME280;21130;51.728;8.748;2024-01-15T05:43:55;98743.22;;;-0.49;100.00
34925;BME280;21130;51.728;8.748;2024-01-15T05:46:22;98745.78;;;-0.54;100.00
34925;BME280;21130;51.728;8.748;2024-01-15T05:48:48;98735.72;;;-0.60;100.00
34925;BME280;21130;51.728;8.748;2024-01-15T05:51:16;98745.59;;;-0.66;100.00
34925;BME280;21130;51.728;8.748;2024-01-15T05:53:42;98739.94;;;-0.64;100.00
34925;BME280;21130;51.728;8.748;2024-01-15T05:56:09;98744.56;;;-0.65;100.00
34925;BME280;21130;51.728;8.748;2024-01-15T05:58:36;98738.25;;;-0.66;100.00
34925;BME280;21130;51.728;8.748;2024-01-15T06:01:03;98739.13;;;-0.65;100.00
34925;BME280;21130;51.728;8.748;2024-01-15T06:03:29;98734.50;;;-0.64;100.00
34925;BME280;21130;51.728;8.748;2024-01-15T06:05:56;98731.53;;;-0.63;100.00
34925;BME280;21130;51.728;8.748;2024-01-15T06:08:24;98731.53;;;-0.63;100.00
34925;BME280;21130;51.728;8.748;2024-01-15T06:10:52;98739.94;;;-0.64;100.00
34925;BME280;21130;51.728;8.748;2024-01-15T06:13:19;98740.16;;;-0.66;100.00
34925;BME280;21130;51.728;8.748;2024-01-15T06:15:46;98742.25;;;-0.68;100.00
34925;BME280;21130;51.728;8.748;2024-01-15T06:18:12;98743.75;;;-0.72;100.00
34925;BME280;21130;51.728;8.748;2024-01-15T06:20:39;98733.50;;;-0.77;100.00
34925;BME280;21130;51.728;8.748;2024-01-15T06:23:05;98752.13;;;-0.80;100.00
34925;BME280;21130;51.728;8.748;2024-01-15T06:25:33;98744.19;;;-0.82;100.00
34925;BME280;21130;51.728;8.748;2024-01-15T06:28:00;98742.13;;;-0.87;100.00
34925;BME280;21130;51.728;8.748;2024-01-15T06:30:26;98746.09;;;-0.89;100.00
34925;BME280;21130;51.728;8.748;2024-01-15T06:32:53;98750.91;;;-0.91;100.00
34925;BME280;21130;51.728;8.748;2024-01-15T06:35:19;98745.47;;;-0.91;100.00
34925;BME280;21130;51.728;8.748;2024-01-15T06:37:46;98744.00;;;-0.87;100.00
34925;BME280;21130;51.728;8.748;2024-01-15T06:40:12;98747.13;;;-0.83;100.00
34925;BME280;21130;51.728;8.748;2024-01-15T06:42:40;98738.75;;;-0.82;100.00
34925;BME280;21130;51.728;8.748;2024-01-15T06:45:08;98740.84;;;-0.77;100.00
34925;BME280;21130;51.728;8.748;2024-01-15T06:47:34;98731.81;;;-0.78;100.00
34925;BME280;21130;51.728;8.748;2024-01-15T06:50:01;98739.13;;;-0.72;100.00
34925;BME280;21130;51.728;8.748;2024-01-15T06:52:27;98724.03;;;-0.68;100.00
34925;BME280;21130;51.728;8.748;2024-01-15T06:54:54;98731.97;;;-0.59;100.00
34925;BME280;21130;51.728;8.748;2024-01-15T06:57:20;98729.22;;;-0.59;100.00
34925;BME280;21130;51.728;8.748;2024-01-15T06:59:48;98725.69;;;-0.60;100.00
34925;BME280;21130;51.728;8.748;2024-01-15T07:02:15;98722.72;;;-0.58;100.00
34925;BME280;21130;51.728;8.748;2024-01-15T07:04:41;98725.63;;;-0.53;100.00
34925;BME280;21130;51.728;8.748;2024-01-15T07:07:08;98719.75;;;-0.50;100.00
34925;BME280;21130;51.728;8.748;2024-01-15T07:09:34;98732.34;;;-0.49;100.00
34925;BME280;21130;51.728;8.748;2024-01-15T07:12:02;98739.88;;;-0.51;100.00
34925;BME280;21130;51.728;8.748;2024-01-15T07:14:28;98732.78;;;-0.59;100.00
34925;BME280;21130;51.728;8.748;2024-01-15T07:16:56;98736.59;;;-0.60;100.00
34925;BME280;21130;51.728;8.748;2024-01-15T07:19:22;98743.50;;;-0.64;100.00
34925;BME280;21130;51.728;8.748;2024-01-15T07:21:49;98736.16;;;-0.63;100.00
34925;BME280;21130;51.728;8.748;2024-01-15T07:24:15;98734.06;;;-0.61;100.00
34925;BME280;21130;51.728;8.748;2024-01-15T07:26:43;98733.22;;;-0.62;100.00
34925;BME280;21130;51.728;8.748;2024-01-15T07:29:09;98729.84;;;-0.57;100.00
34925;BME280;21130;51.728;8.748;2024-01-15T07:31:37;98742.41;;;-0.56;100.00
34925;BME280;21130;51.728;8.748;2024-01-15T07:34:05;98740.94;;;-0.52;100.00
34925;BME280;21130;51.728;8.748;2024-01-15T07:36:31;98742.41;;;-0.50;100.00
34925;BME280;21130;51.728;8.748;2024-01-15T07:38:59;98736.09;;;-0.50;100.00
34925;BME280;21130;51.728;8.748;2024-01-15T07:41:25;98743.44;;;-0.51;100.00
34925;BME280;21130;51.728;8.748;2024-01-15T07:43:52;98742.59;;;-0.51;100.00
34925;BME280;21130;51.728;8.748;2024-01-15T07:46:18;98742.81;;;-0.53;100.00
34925;BME280;21130;51.728;8.748;2024-01-15T07:48:45;98747.03;;;-0.57;100.00
34925;BME280;21130;51.728;8.748;2024-01-15T07:51:13;98749.97;;;-0.58;100.00
34925;BME280;21130;51.728;8.748;2024-01-15T07:53:39;98746.63;;;-0.60;100.00
34925;BME280;21130;51.728;8.748;2024-01-15T07:56:06;98756.47;;;-0.59;100.00
34925;BME280;21130;51.728;8.748;2024-01-15T07:58:32;98744.53;;;-0.58;100.00
34925;BME280;21130;51.728;8.748;2024-01-15T08:00:59;98742.41;;;-0.56;100.00
34925;BME280;21130;51.728;8.748;2024-01-15T08:03:26;98746.63;;;-0.60;100.00
34925;BME280;21130;51.728;8.748;2024-01-15T08:05:52;98753.13;;;-0.61;100.00
34925;BME280;21130;51.728;8.748;2024-01-15T08:08:20;98758.78;;;-0.63;100.00
34925;BME280;21130;51.728;8.748;2024-01-15T08:10:48;98761.75;;;-0.64;100.00
34925;BME280;21130;51.728;8.748;2024-01-15T08:13:16;98760.50;;;-0.69;100.00
34925;BME280;21130;51.728;8.748;2024-01-15T08:15:43;98761.75;;;-0.71;100.00
34925;BME280;21130;51.728;8.748;2024-01-15T08:18:09;98770.38;;;-0.74;100.00
34925;BME280;21130;51.728;8.748;2024-01-15T08:20:36;98766.81;;;-0.81;100.00
34925;BME280;21130;51.728;8.748;2024-01-15T08:23:02;98769.34;;;-0.87;100.00
34925;BME280;21130;51.728;8.748;2024-01-15T08:25:30;98767.69;;;-0.88;100.00
34925;BME280;21130;51.728;8.748;2024-01-15T08:27:57;98767.88;;;-0.89;100.00
34925;BME280;21130;51.728;8.748;2024-01-15T08:30:23;98770.22;;;-0.93;100.00
34925;BME280;21130;51.728;8.748;2024-01-15T08:32:53;98766.44;;;-0.92;100.00
34925;BME280;21130;51.728;8.748;2024-01-15T08:35:19;98765.38;;;-0.91;100.00
34925;BME280;21130;51.728;8.748;2024-01-15T08:37:48;98760.97;;;-0.92;100.00
34925;BME280;21130;51.728;8.748;2024-01-15T08:40:14;98764.53;;;-0.91;100.00
34925;BME280;21130;51.728;8.748;2024-01-15T08:42:42;98763.72;;;-0.92;100.00
34925;BME280;21130;51.728;8.748;2024-01-15T08:45:09;98754.06;;;-0.94;100.00
34925;BME280;21130;51.728;8.748;2024-01-15T08:47:35;98755.53;;;-0.92;100.00
34925;BME280;21130;51.728;8.748;2024-01-15T08:50:02;98765.38;;;-0.91;100.00
34925;BME280;21130;51.728;8.748;2024-01-15T08:52:29;98767.88;;;-0.89;100.00
34925;BME280;21130;51.728;8.748;2024-01-15T08:54:56;98767.88;;;-0.89;100.00
34925;BME280;21130;51.728;8.748;2024-01-15T08:57:22;98759.72;;;-0.89;100.00
34925;BME280;21130;51.728;8.748;2024-01-15T08:59:50;98761.81;;;-0.84;100.00
34925;BME280;21130;51.728;8.748;2024-01-15T09:02:17;98767.03;;;-0.83;100.00
34925;BME280;21130;51.728;8.748;2024-01-15T09:04:43;98765.16;;;-0.82;100.00
34925;BME280;21130;51.728;8.748;2024-01-15T09:07:10;98768.91;;;-0.83;100.00
34925;BME280;21130;51.728;8.748;2024-01-15T09:09:37;98757.81;;;-0.82;100.00
34925;BME280;21130;51.728;8.748;2024-01-15T09:12:05;98762.44;;;-0.82;100.00
34925;BME280;21130;51.728;8.748;2024-01-15T09:14:33;98768.28;;;-0.79;100.00
34925;BME280;21130;51.728;8.748;2024-01-15T09:17:03;98759.03;;;-0.78;100.00
34925;BME280;21130;51.728;8.748;2024-01-15T09:19:30;98754.25;;;-0.82;100.00
34925;BME280;21130;51.728;8.748;2024-01-15T09:21:56;98766.81;;;-0.81;100.00
34925;BME280;21130;51.728;8.748;2024-01-15T09:24:23;98769.53;;;-0.81;100.00
34925;BME280;21130;51.728;8.748;2024-01-15T09:26:49;98764.09;;;-0.81;100.00
34925;BME280;21130;51.728;8.748;2024-01-15T09:29:16;98761.75;;;-0.78;100.00
34925;BME280;21130;51.728;8.748;2024-01-15T09:31:43;98755.91;;;-0.75;100.00
34925;BME280;21130;51.728;8.748;2024-01-15T09:34:11;98750.41;;;-0.68;100.00
34925;BME280;21130;51.728;8.748;2024-01-15T09:36:39;98751.47;;;-0.69;100.00
34925;BME280;21130;51.728;8.748;2024-01-15T09:39:07;98748.75;;;-0.69;100.00
34925;BME280;21130;51.728;8.748;2024-01-15T09:41:36;98762.78;;;-0.66;100.00
34925;BME280;21130;51.728;8.748;2024-01-15T09:44:03;98758.19;;;-0.65;100.00
34925;BME280;21130;51.728;8.748;2024-01-15T09:46:30;98752.09;;;-0.67;100.00
34925;BME280;21130;51.728;8.748;2024-01-15T09:48:57;98757.75;;;-0.69;100.00
34925;BME280;21130;51.728;8.748;2024-01-15T09:51:25;98761.13;;;-0.67;100.00
34925;BME280;21130;51.728;8.748;2024-01-15T09:53:52;98758.81;;;-0.70;100.00
34925;BME280;21130;51.728;8.748;2024-01-15T09:56:21;98768.66;;;-0.69;100.00
34925;BME280;21130;51.728;8.748;2024-01-15T09:58:47;98762.59;;;-0.71;100.00
34925;BME280;21130;51.728;8.748;2024-01-15T10:01:14;98758.81;;;-0.70;100.00
34925;BME280;21130;51.728;8.748;2024-01-15T10:03:42;98768.03;;;-0.71;100.00
34925;BME280;21130;51.728;8.748;2024-01-15T10:06:10;98761.13;;;-0.67;100.00
34925;BME280;21130;51.728;8.748;2024-01-15T10:08:38;98768.22;;;-0.66;100.00
34925;BME280;21130;51.728;8.748;2024-01-15T10:11:05;98773.66;;;-0.59;100.00
34925;BME280;21130;51.728;8.748;2024-01-15T10:13:31;98767.13;;;-0.51;100.00
34925;BME280;21130;51.728;8.748;2024-01-15T10:16:00;98769.84;;;-0.51;100.00
34925;BME280;21130;51.728;8.748;2024-01-15T10:18:29;98763.78;;;-0.53;100.00
34925;BME280;21130;51.728;8.748;2024-01-15T10:20:56;98753.31;;;-0.56;100.00
34925;BME280;21130;51.728;8.748;2024-01-15T10:23:23;98764.84;;;-0.54;100.00
34925;BME280;21130;51.728;8.748;2024-01-15T10:25:51;98755.84;;;-0.55;100.00
34925;BME280;21130;51.728;8.748;2024-01-15T10:28:18;98757.28;;;-0.52;100.00
34925;BME280;21130;51.728;8.748;2024-01-15T10:30:45;98749.72;;;-0.50;100.00
34925;BME280;21130;51.728;8.748;2024-01-15T10:33:12;98754.97;;;-0.49;100.00
34925;BME280;21130;51.728;8.748;2024-01-15T10:35:40;98745.25;;;-0.38;100.00
34925;BME280;21130;51.728;8.748;2024-01-15T10:38:07;98751.59;;;-0.44;100.00
34925;BME280;21130;51.728;8.748;2024-01-15T10:40:33;98746.75;;;-0.42;100.00
34925;BME280;21130;51.728;8.748;2024-01-15T10:43:01;98745.50;;;-0.46;100.00
34925;BME280;21130;51.728;8.748;2024-01-15T10:45:28;98747.41;;;-0.47;100.00
34925;BME280;21130;51.728;8.748;2024-01-15T10:47:55;98749.06;;;-0.46;100.00
34925;BME280;21130;51.728;8.748;2024-01-15T10:50:24;98754.13;;;-0.49;100.00
34925;BME280;21130;51.728;8.748;2024-01-15T10:52:51;98746.75;;;-0.42;100.00
34925;BME280;21130;51.728;8.748;2024-01-15T10:55:19;98749.50;;;-0.42;100.00
34925;BME280;21130;51.728;8.748;2024-01-15T10:57:48;98741.25;;;-0.35;100.00
34925;BME280;21130;51.728;8.748;2024-01-15T11:00:17;98749.44;;;-0.35;100.00
34925;BME280;21130;51.728;8.748;2024-01-15T11:02:46;98750.69;;;-0.31;100.00
34925;BME280;21130;51.728;8.748;2024-01-15T11:05:13;98749.84;;;-0.32;100.00
34925;BME280;21130;51.728;8.748;2024-01-15T11:07:39;98746.69;;;-0.29;100.00
34925;BME280;21130;51.728;8.748;2024-01-15T11:10:07;98736.78;;;-0.23;100.00
34925;BME280;21130;51.728;8.748;2024-01-15T11:12:35;98730.72;;;-0.25;100.00
34925;BME280;21130;51.728;8.748;2024-01-15T11:15:04;98734.88;;;-0.16;100.00
34925;BME280;21130;51.728;8.748;2024-01-15T11:18:00;98740.75;;;-0.12;100.00
34925;BME280;21130;51.728;8.748;2024-01-15T11:20:28;98735.75;;;-0.22;100.00
34925;BME280;21130;51.728;8.748;2024-01-15T11:22:56;98735.13;;;-0.24;100.00
34925;BME280;21130;51.728;8.748;2024-01-15T11:25:34;98743.53;;;-0.26;100.00
34925;BME280;21130;51.728;8.748;2024-01-15T11:28:01;98727.41;;;-0.27;100.00
34925;BME280;21130;51.728;8.748;2024-01-15T11:30:28;98735.16;;;-0.31;100.00
34925;BME280;21130;51.728;8.748;2024-01-15T11:32:54;98734.13;;;-0.30;100.00
34925;BME280;21130;51.728;8.748;2024-01-15T11:35:22;98739.56;;;-0.30;100.00
34925;BME280;21130;51.728;8.748;2024-01-15T11:37:58;98732.41;;;-0.24;100.00
34925;BME280;21130;51.728;8.748;2024-01-15T11:40:39;98732.19;;;-0.23;100.00
34925;BME280;21130;51.728;8.748;2024-01-15T11:43:08;98731.31;;;-0.16;100.00
34925;BME280;21130;51.728;8.748;2024-01-15T11:45:35;98724.63;;;-0.20;100.00
34925;BME280;21130;51.728;8.748;2024-01-15T11:48:10;98724.84;;;-0.22;100.00
34925;BME280;21130;51.728;8.748;2024-01-15T11:50:40;98722.94;;;-0.22;100.00
34925;BME280;21130;51.728;8.748;2024-01-15T11:53:17;98727.16;;;-0.26;100.00
34925;BME280;21130;51.728;8.748;2024-01-15T11:55:45;98739.75;;;-0.25;100.00
34925;BME280;21130;51.728;8.748;2024-01-15T11:58:13;98746.25;;;-0.26;100.00
34925;BME280;21130;51.728;8.748;2024-01-15T12:00:43;98731.16;;;-0.28;100.00
34925;BME280;21130;51.728;8.748;2024-01-15T12:03:10;98730.53;;;-0.30;100.00
34925;BME280;21130;51.728;8.748;2024-01-15T12:05:37;98726.78;;;-0.29;100.00
34925;BME280;21130;51.728;8.748;2024-01-15T12:08:05;98728.06;;;-0.32;100.00
34925;BME280;21130;51.728;8.748;2024-01-15T12:10:40;98737.09;;;-0.38;100.00
34925;BME280;21130;51.728;8.748;2024-01-15T12:13:10;98733.94;;;-0.35;100.00
34925;BME280;21130;51.728;8.748;2024-01-15T12:15:39;98742.31;;;-0.36;100.00
34925;BME280;21130;51.728;8.748;2024-01-15T12:18:08;98741.50;;;-0.37;100.00
34925;BME280;21130;51.728;8.748;2024-01-15T12:20:35;98741.69;;;-0.32;100.00
34925;BME280;21130;51.728;8.748;2024-01-15T12:23:01;98741.03;;;-0.27;100.00
34925;BME280;21130;51.728;8.748;2024-01-15T12:25:30;98742.47;;;-0.25;100.00
34925;BME280;21130;51.728;8.748;2024-01-15T12:27:58;98747.50;;;-0.22;100.00
34925;BME280;21130;51.728;8.748;2024-01-15T12:30:26;98741.38;;;-0.17;100.00
34925;BME280;21130;51.728;8.748;2024-01-15T12:32:53;98736.72;;;-0.10;100.00
34925;BME280;21130;51.728;8.748;2024-01-15T12:35:19;98729.13;;;-0.01;100.00
34925;BME280;21130;51.728;8.748;2024-01-15T12:37:47;98733.56;;;-0.07;100.00
34925;BME280;21130;51.728;8.748;2024-01-15T12:40:18;98731.03;;;-0.08;100.00
34925;BME280;21130;51.728;8.748;2024-01-15T12:42:46;98730.41;;;-0.10;100.00
34925;BME280;21130;51.728;8.748;2024-01-15T12:45:13;98727.75;;;-0.17;100.00
34925;BME280;21130;51.728;8.748;2024-01-15T12:47:40;98733.41;;;-0.18;100.00
34925;BME280;21130;51.728;8.748;2024-01-15T12:50:06;98738.03;;;-0.19;100.00
34925;BME280;21130;51.728;8.748;2024-01-15T12:52:33;98739.09;;;-0.20;100.00
34925;BME280;21130;51.728;8.748;2024-01-15T12:55:00;98743.09;;;-0.23;100.00
34925;BME280;21130;51.728;8.748;2024-01-15T12:57:27;98744.75;;;-0.22;100.00
34925;BME280;21130;51.728;8.748;2024-01-15T12:59:55;98737.41;;;-0.21;100.00
34925;BME280;21130;51.728;8.748;2024-01-15T13:02:22;98740.56;;;-0.17;100.00